KHRI

Hermiston Municipal Airport

Hermiston, Oregon, USA
METAR KHRI 210653Z AUTO 21005KT 10SM FEW085 BKN110 19/08 A2988 RMK AO2 SLP115 T01890078
Observed Flight Rules
May-21 @ 06:53 UTC (20 minutes ago) Visual Flight Rules
Wind Visibility Clouds
210° at 5 knots 10 miles
  • Few at 8,500' AGL
  • Broken at 11,000' AGL
Temperatures Readings
Current 19°C / 66°F
Dewpoint 8°C / 46°F
Humidity 49%
Altimeter 29.88" Hg
Pressure 1011.5 hPa
Elevation 195
METAR KHRI 210653Z AUTO 21005KT 10SM FEW085 BKN110 19/08 A2988 RMK AO2 SLP115 T01890078
Observed Flight Rules
May-21 @ 06:53 UTC
(20 minutes ago)
VFR
Wind Visibility
210° at 5 knots 10 miles
Clouds
  • Few at 8,500' AGL
  • Broken at 11,000' AGL
Temperature Dewpoint
19°C / 66°F 8°C / 46°F
Humidity Altimeter Pressure
49% 29.88" Hg 1011.5 hPa